Time;durP1;ratioP1;P1;durP2;ratioP2;P2;SDS_P1;SDS_P2;PMS_P1;PMS_P2;Temp;Humidity;BMP_temperature;BMP_pressure;BME280_temperature;BME280_humidity;BME280_pressure;Samples;Min_cycle;Max_cycle;Signal;HPM_P1;HPM_P2
2022/01/25 00:31:12;;;;;;;197.57;160.32;;;;;;;14.62;31.51;94953.44;5045826;28;20053;-68
2022/01/25 00:33:42;;;;;;;200.23;161.10;;;;;;;14.61;31.37;94963.44;5045037;28;20268;-68
2022/01/25 00:36:11;;;;;;;193.57;158.63;;;;;;;14.61;31.44;94959.97;5045713;28;20307;-68
2022/01/25 00:38:37;;;;;;;195.60;159.47;;;;;;;14.61;31.44;94955.38;5048213;28;20047;-68
2022/01/25 00:41:03;;;;;;;194.02;158.98;;;;;;;14.60;31.38;94955.78;5044298;28;20051;-69
2022/01/25 00:43:30;;;;;;;199.05;159.90;;;;;;;14.59;31.18;94954.25;5044514;28;20033;-68
2022/01/25 00:45:59;;;;;;;191.18;156.18;;;;;;;14.57;31.32;94948.50;5042988;28;20130;-68
2022/01/25 00:53:59;;;;;;;190.07;153.65;;;;;;;14.46;31.17;94960.19;5042168;28;20700;-68
2022/01/25 00:56:33;;;;;;;190.40;153.10;;;;;;;14.42;31.35;94964.88;5047061;28;20053;-68
2022/01/25 00:59:00;;;;;;;195.23;158.02;;;;;;;14.41;31.51;94960.66;5046762;28;20185;-69
2022/01/25 01:01:27;;;;;;;192.13;155.90;;;;;;;14.40;31.26;94966.41;5045047;28;20055;-68
2022/01/25 01:03:53;;;;;;;199.98;162.13;;;;;;;14.40;31.31;94955.66;5043055;28;20072;-68
2022/01/25 01:06:20;;;;;;;196.95;159.02;;;;;;;14.40;31.26;94952.94;5041422;28;20048;-68
2022/01/25 01:08:45;;;;;;;191.20;154.35;;;;;;;14.45;31.22;94957.91;5045564;28;20074;-69
2022/01/25 01:11:18;;;;;;;202.02;163.43;;;;;;;14.47;31.23;94955.56;5042329;28;20052;-67
2022/01/25 01:41:20;;;;;;;194.93;157.15;;;;;;;14.45;31.17;94966.75;5043852;28;20448;-69
2022/01/25 01:43:52;;;;;;;193.82;156.77;;;;;;;14.43;31.35;94965.63;5044800;28;20164;-68
2022/01/25 01:51:38;;;;;;;196.88;157.60;;;;;;;14.44;31.35;94964.47;5044690;28;20132;-68
2022/01/25 01:54:15;;;;;;;195.50;157.30;;;;;;;14.43;31.18;94961.00;5041350;28;20059;-67
2022/01/25 01:56:43;;;;;;;195.65;156.98;;;;;;;14.44;31.35;94959.06;5046896;28;20056;-69
2022/01/25 01:59:12;;;;;;;196.98;158.60;;;;;;;14.44;31.28;94956.38;5047010;28;20107;-69
2022/01/25 02:01:39;;;;;;;194.05;156.65;;;;;;;14.43;31.22;94955.63;5042408;28;20040;-68
2022/01/25 02:04:07;;;;;;;195.57;157.80;;;;;;;14.44;31.42;94959.06;5044136;28;20043;-69
2022/01/25 02:06:33;;;;;;;198.35;161.23;;;;;;;14.43;31.17;94950.25;5043838;28;20049;-69
2022/01/25 02:08:59;;;;;;;190.07;154.48;;;;;;;14.42;31.32;94946.03;5043210;28;20179;-69
2022/01/25 02:11:24;;;;;;;195.63;158.38;;;;;;;14.43;31.49;94944.84;5043314;28;20075;-68
2022/01/25 02:13:50;;;;;;;190.02;154.23;;;;;;;14.43;31.28;94946.78;5043044;28;20064;-68
2022/01/25 02:16:39;;;;;;;199.32;160.18;;;;;;;14.42;31.25;94937.94;5041139;28;20049;-68
2022/01/25 02:24:32;;;;;;;204.63;163.07;;;;;;;14.42;31.38;94943.34;5040042;28;20072;-68
2022/01/25 02:26:59;;;;;;;196.93;158.95;;;;;;;14.41;31.62;94938.34;5042670;28;20056;-68
2022/01/25 02:29:25;;;;;;;195.82;157.73;;;;;;;14.40;31.29;94937.56;5044024;28;20768;-69
2022/01/25 02:31:55;;;;;;;191.95;156.90;;;;;;;14.40;31.43;94934.13;5045841;28;20060;-69
2022/01/25 02:34:21;;;;;;;200.88;161.73;;;;;;;14.40;31.43;94942.19;5044327;28;20071;-69
2022/01/25 02:36:56;;;;;;;208.63;167.60;;;;;;;14.39;31.39;94935.28;5040674;28;20037;-68
2022/01/25 02:39:21;;;;;;;193.68;155.40;;;;;;;14.39;31.51;94941.44;5047694;28;20048;-69
2022/01/25 02:41:47;;;;;;;194.93;157.65;;;;;;;14.39;31.52;94936.03;5042606;28;20123;-68
2022/01/25 02:44:17;;;;;;;195.30;158.73;;;;;;;14.38;31.33;94945.28;5038047;28;20064;-68
2022/01/25 02:49:09;;;;;;;199.85;160.77;;;;;;;14.36;31.38;94939.56;5042029;28;20393;-69
2022/01/25 02:51:44;;;;;;;197.13;158.73;;;;;;;14.36;31.27;94936.09;5044132;28;20049;-69
2022/01/25 02:54:11;;;;;;;197.23;158.90;;;;;;;14.34;31.28;94944.56;5042506;28;20059;-67
2022/01/25 02:56:37;;;;;;;194.15;156.70;;;;;;;14.32;31.26;94946.16;5041203;28;20417;-67
2022/01/25 02:59:06;;;;;;;191.68;154.85;;;;;;;14.31;31.29;94939.25;5041944;28;20402;-67
2022/01/25 03:01:33;;;;;;;198.05;158.00;;;;;;;14.32;31.17;94940.78;5042443;28;20048;-67
2022/01/25 03:03:59;;;;;;;193.90;156.63;;;;;;;14.33;31.23;94939.59;5045198;28;20059;-67
2022/01/25 03:06:26;;;;;;;188.32;151.18;;;;;;;14.34;31.06;94938.44;5045182;28;20056;-67
2022/01/25 03:08:53;;;;;;;196.48;157.98;;;;;;;14.35;31.04;94937.25;5042583;28;20090;-67
2022/01/25 03:11:20;;;;;;;197.73;161.13;;;;;;;14.35;31.07;94948.03;5044379;28;20064;-66
2022/01/25 03:13:52;;;;;;;198.38;159.93;;;;;;;14.36;31.04;94941.47;5044945;28;20056;-67
2022/01/25 03:16:34;;;;;;;194.23;157.77;;;;;;;14.35;31.12;94934.56;5040321;28;20049;-64
2022/01/25 03:19:03;;;;;;;195.73;157.23;;;;;;;14.35;31.04;94942.66;5044867;28;20059;-67
2022/01/25 03:23:56;;;;;;;188.95;150.98;;;;;;;14.36;31.09;94938.78;5042192;28;20544;-67
2022/01/25 03:26:24;;;;;;;197.20;159.60;;;;;;;14.36;30.88;94946.88;5042616;28;20049;-67
2022/01/25 03:28:52;;;;;;;198.65;160.82;;;;;;;14.33;31.17;94943.06;5045212;28;20064;-67
2022/01/25 03:31:18;;;;;;;195.00;155.90;;;;;;;14.34;31.14;94927.66;5040098;28;20429;-67
2022/01/25 03:33:44;;;;;;;195.13;156.73;;;;;;;14.33;31.08;94932.28;5044883;28;20055;-67
2022/01/25 03:36:10;;;;;;;193.32;154.93;;;;;;;14.35;30.91;94929.19;5041924;28;20037;-67
2022/01/25 03:38:37;;;;;;;192.77;155.57;;;;;;;14.36;31.01;94928.03;5042355;28;20052;-67
2022/01/25 03:41:07;;;;;;;194.63;155.57;;;;;;;14.32;31.08;94920.00;5042815;28;20044;-67
2022/01/25 03:43:34;;;;;;;194.75;157.77;;;;;;;14.34;31.09;94923.06;5048806;28;20048;-67
2022/01/25 03:46:11;;;;;;;195.27;157.57;;;;;;;14.35;31.09;94923.81;5043637;28;20151;-67
2022/01/25 03:51:21;;;;;;;196.75;157.50;;;;;;;14.35;31.06;94921.88;5049161;28;20358;-67
2022/01/25 03:53:47;;;;;;;195.77;158.82;;;;;;;14.34;30.93;94914.97;5040714;28;20053;-67
2022/01/25 03:56:13;;;;;;;200.18;161.05;;;;;;;14.34;30.89;94922.28;5041057;28;20037;-67
2022/01/25 03:58:38;;;;;;;193.00;155.65;;;;;;;14.33;31.15;94916.16;5051103;28;20143;-67
2022/01/25 04:01:04;;;;;;;197.73;159.45;;;;;;;14.33;31.06;94918.84;5043323;28;20434;-67
2022/01/25 04:03:36;;;;;;;202.32;160.93;;;;;;;14.33;31.17;94923.47;5042520;28;20052;-67
2022/01/25 04:06:03;;;;;;;194.05;157.02;;;;;;;14.33;31.09;94926.91;5047267;28;20055;-67
2022/01/25 04:08:29;;;;;;;192.77;154.85;;;;;;;14.33;31.21;94923.47;5046197;28;20076;-67
2022/01/25 04:10:54;;;;;;;191.27;154.73;;;;;;;14.33;31.00;94928.84;5044204;28;20048;-67
2022/01/25 04:13:20;;;;;;;196.00;157.10;;;;;;;14.29;30.94;94928.16;5047080;28;20040;-67
2022/01/25 04:15:47;;;;;;;189.73;153.73;;;;;;;14.27;31.22;94931.25;5048184;28;20489;-67
2022/01/25 04:18:24;;;;;;;198.57;157.85;;;;;;;14.25;30.97;94930.13;5047076;28;20547;-67
2022/01/25 04:26:26;;;;;;;203.57;163.85;;;;;;;14.30;30.91;94937.75;5043011;28;20041;-66
2022/01/25 04:28:52;;;;;;;190.63;152.82;;;;;;;14.29;30.83;94931.59;5046433;28;20454;-67
2022/01/25 04:31:19;;;;;;;196.20;156.13;;;;;;;14.30;30.89;94929.69;5044821;28;20080;-67
2022/01/25 04:34:06;;;;;;;198.77;160.10;;;;;;;14.31;30.84;94931.19;5045474;28;20055;-67
2022/01/25 04:48:55;;;;;;;194.80;155.80;;;;;;;14.31;30.83;94929.25;5040012;28;20053;-70
2022/01/25 04:53:56;;;;;;;206.50;165.52;;;;;;;14.30;30.80;94916.97;5042905;28;20064;-69
2022/01/25 04:56:05;;;;;;;197.65;157.82;;;;;;;14.28;30.69;94913.94;5029028;28;20061;-69
2022/01/25 04:58:48;;;;;;;;;;;;;;;14.29;30.71;94917.41;5042610;28;20053;-70
2022/01/25 05:01:14;;;;;;;195.82;154.63;;;;;;;14.29;30.74;94917.41;5041841;28;20285;-69
2022/01/25 05:06:25;;;;;;;196.15;156.18;;;;;;;14.28;30.57;94924.72;5044625;28;20147;-68
2022/01/25 05:08:57;;;;;;;191.27;152.35;;;;;;;14.28;30.70;94922.00;5044607;28;20048;-67
2022/01/25 05:13:59;;;;;;;193.05;154.52;;;;;;;14.29;30.69;94914.72;5040696;28;20051;-67
2022/01/25 05:16:34;;;;;;;195.77;156.07;;;;;;;14.29;30.71;94910.09;5044625;28;21329;-67
2022/01/25 05:24:16;;;;;;;200.15;160.10;;;;;;;14.30;30.68;94900.81;5041427;28;20041;-65
2022/01/25 05:26:42;;;;;;;193.25;154.20;;;;;;;14.30;30.69;94906.19;5046874;28;20307;-62
2022/01/25 05:29:08;;;;;;;193.63;155.32;;;;;;;14.30;30.48;94911.59;5042716;28;20053;-63
2022/01/25 05:31:36;;;;;;;192.23;154.77;;;;;;;14.31;30.54;94906.97;5043216;28;20051;-63
2022/01/25 05:34:02;;;;;;;198.38;160.38;;;;;;;14.32;30.75;94914.63;5042915;28;20465;-66
2022/01/25 05:36:27;;;;;;;198.75;160.68;;;;;;;14.31;30.67;94920.41;5043660;28;20057;-69
2022/01/25 05:38:56;;;;;;;192.60;154.60;;;;;;;14.31;30.59;94915.78;5042388;28;20422;-67
2022/01/25 05:41:26;;;;;;;198.10;159.18;;;;;;;14.31;30.43;94915.78;5042117;28;20048;-67
2022/01/25 05:44:21;;;;;;;196.45;158.65;;;;;;;14.32;30.45;94913.88;5038884;28;20045;-66
2022/01/25 05:47:08;;;;;;;196.43;158.60;;;;;;;14.32;30.50;94916.56;5041901;28;20044;-70
2022/01/25 05:49:35;;;;;;;192.45;156.10;;;;;;;14.31;30.41;94913.09;5046623;28;20078;-69
2022/01/25 05:52:06;;;;;;;194.70;157.57;;;;;;;14.32;30.40;94914.63;5045888;28;20064;-68
2022/01/25 05:54:32;;;;;;;208.10;165.98;;;;;;;14.32;30.36;94919.25;5042975;28;20051;-68
2022/01/25 05:56:57;;;;;;;189.50;153.68;;;;;;;14.33;30.36;94920.75;5043772;28;20412;-67
2022/01/25 05:59:23;;;;;;;194.85;157.55;;;;;;;14.31;30.41;94921.16;5040423;28;20160;-67
2022/01/25 06:01:49;;;;;;;194.18;157.43;;;;;;;14.31;30.42;94925.78;5042294;28;20040;-68
2022/01/25 06:04:15;;;;;;;198.32;160.07;;;;;;;14.31;30.19;94926.56;5041821;28;20077;-69
2022/01/25 06:06:41;;;;;;;196.65;157.25;;;;;;;14.33;30.31;94923.47;5046122;28;20041;-67
2022/01/25 06:09:07;;;;;;;193.55;157.70;;;;;;;14.33;30.38;94932.28;5042670;28;20460;-67
2022/01/25 06:11:33;;;;;;;196.90;159.13;;;;;;;14.34;30.29;94936.50;5045342;28;20036;-68
2022/01/25 06:14:00;;;;;;;199.43;160.57;;;;;;;14.34;30.24;94928.44;5044372;28;20051;-67
2022/01/25 06:16:28;;;;;;;194.73;159.02;;;;;;;14.36;30.19;94926.09;5043593;28;20094;-68
2022/01/25 06:18:55;;;;;;;194.13;156.10;;;;;;;14.38;30.09;94936.44;5043359;28;20091;-67
2022/01/25 06:21:20;;;;;;;196.75;159.80;;;;;;;14.38;29.82;94928.38;5044654;28;20111;-67
2022/01/25 06:23:46;;;;;;;196.95;159.23;;;;;;;14.40;30.26;94934.13;5042795;28;20060;-67
2022/01/25 06:26:11;;;;;;;192.57;155.55;;;;;;;14.41;30.09;94925.66;5045587;28;20080;-67
2022/01/25 06:28:37;;;;;;;196.30;158.95;;;;;;;14.43;30.23;94923.31;5046955;28;20055;-67
2022/01/25 06:31:03;;;;;;;193.05;156.05;;;;;;;14.42;30.01;94919.13;5042669;28;20053;-67
2022/01/25 06:33:28;;;;;;;195.35;158.00;;;;;;;14.43;30.30;94925.25;5044748;28;20496;-67
2022/01/25 06:35:54;;;;;;;188.25;150.82;;;;;;;14.42;30.04;94926.44;5042584;28;20107;-67
2022/01/25 06:38:20;;;;;;;199.13;160.10;;;;;;;14.44;29.94;94937.53;5043536;28;20044;-67
2022/01/25 06:40:45;;;;;;;190.25;152.68;;;;;;;14.44;29.94;94932.16;5038421;28;20459;-67
2022/01/25 06:43:11;;;;;;;196.30;158.95;;;;;;;14.44;30.22;94932.94;5042837;28;20424;-67
2022/01/25 06:45:40;;;;;;;201.73;162.82;;;;;;;14.43;30.08;94936.03;5044883;28;20052;-68
2022/01/25 06:48:06;;;;;;;202.07;161.82;;;;;;;14.43;30.20;94934.09;5047449;28;20125;-67
2022/01/25 06:50:33;;;;;;;194.13;155.93;;;;;;;14.43;29.95;94939.47;5042595;28;20412;-67
2022/01/25 06:52:58;;;;;;;192.13;154.27;;;;;;;14.45;30.01;94939.06;5042849;28;20444;-67
2022/01/25 06:55:24;;;;;;;192.98;157.65;;;;;;;14.46;30.07;94937.91;5044104;28;20054;-68
2022/01/25 06:57:49;;;;;;;196.45;159.18;;;;;;;14.45;29.83;94933.69;5044467;28;20167;-67
2022/01/25 07:00:18;;;;;;;195.48;160.27;;;;;;;14.47;30.02;94936.72;5045092;28;20091;-68
2022/01/25 07:02:43;;;;;;;193.93;156.63;;;;;;;14.44;29.97;94935.63;5045323;28;20040;-67
2022/01/25 07:05:09;;;;;;;195.68;159.18;;;;;;;14.45;30.02;94931.00;5045183;28;20067;-68
2022/01/25 07:07:36;;;;;;;195.35;158.90;;;;;;;14.45;29.96;94931.75;5046168;28;20053;-68
2022/01/25 07:10:03;;;;;;;195.93;160.75;;;;;;;14.46;29.92;94929.81;5043144;28;20442;-68
2022/01/25 07:12:28;;;;;;;192.13;155.82;;;;;;;14.47;29.92;94940.19;5046245;28;20377;-67
2022/01/25 07:14:54;;;;;;;203.50;166.43;;;;;;;14.46;29.81;94932.53;5038682;28;20048;-67
2022/01/25 07:17:20;;;;;;;191.68;154.55;;;;;;;14.48;29.83;94935.56;5041108;28;20055;-67
2022/01/25 07:19:45;;;;;;;195.20;157.38;;;;;;;14.48;29.87;94938.25;5042928;28;20048;-68
2022/01/25 07:22:11;;;;;;;196.30;159.07;;;;;;;14.47;29.87;94942.13;5042948;28;20040;-67
2022/01/25 07:24:37;;;;;;;194.85;156.90;;;;;;;14.49;29.93;94939.78;5043089;28;20135;-67
2022/01/25 07:27:03;;;;;;;196.05;159.60;;;;;;;14.47;30.02;94942.13;5042017;28;20517;-68
2022/01/25 07:29:28;;;;;;;192.05;156.23;;;;;;;14.48;29.94;94943.63;5043735;28;20430;-68
2022/01/25 07:31:55;;;;;;;193.82;156.65;;;;;;;14.50;29.83;94949.38;5044915;28;20463;-68
2022/01/25 07:34:21;;;;;;;204.85;165.75;;;;;;;14.50;29.66;94957.44;5040747;28;20523;-67
2022/01/25 07:36:46;;;;;;;193.02;154.90;;;;;;;14.50;29.76;94957.44;5042251;28;20048;-67
2022/01/25 07:39:12;;;;;;;196.15;158.38;;;;;;;14.49;29.63;94956.69;5042732;28;20049;-68
2022/01/25 07:41:39;;;;;;;198.43;161.80;;;;;;;14.49;29.92;94956.69;5038292;28;20037;-67
2022/01/25 07:44:05;;;;;;;191.35;155.77;;;;;;;14.50;29.60;94954.75;5044436;28;20127;-67
2022/01/25 07:46:31;;;;;;;190.20;154.23;;;;;;;14.50;29.85;94963.59;5042930;28;20673;-68
2022/01/25 07:48:58;;;;;;;192.30;156.88;;;;;;;14.50;29.75;94960.13;5043340;28;20121;-67
2022/01/25 07:51:26;;;;;;;192.43;156.15;;;;;;;14.50;29.60;94958.22;5039161;28;20052;-68
2022/01/25 07:53:53;;;;;;;193.43;156.80;;;;;;;14.52;29.84;94952.41;5044470;28;20045;-68
2022/01/25 07:56:19;;;;;;;194.95;158.35;;;;;;;14.52;29.60;94965.13;5044139;28;20193;-68
2022/01/25 07:58:45;;;;;;;205.23;167.45;;;;;;;14.52;29.73;94959.72;5043389;28;20064;-68
2022/01/25 08:01:10;;;;;;;193.90;156.77;;;;;;;14.52;29.74;94965.13;5047096;28;20410;-67
2022/01/25 08:03:37;;;;;;;199.00;161.38;;;;;;;14.52;29.57;94965.13;5037861;28;22503;-67
2022/01/25 08:06:03;;;;;;;193.02;157.15;;;;;;;14.52;29.68;94965.88;5036045;28;20084;-67
2022/01/25 08:08:28;;;;;;;191.38;156.02;;;;;;;14.52;29.70;94963.19;5042637;28;20151;-67
2022/01/25 08:10:54;;;;;;;188.68;153.20;;;;;;;14.52;29.63;94960.50;5044982;28;20051;-68
2022/01/25 08:13:19;;;;;;;196.32;159.85;;;;;;;14.49;30.04;94959.38;5039673;28;20061;-68
2022/01/25 08:15:45;;;;;;;190.13;154.25;;;;;;;14.50;29.48;94960.13;5040545;28;20495;-67
2022/01/25 08:18:10;;;;;;;200.93;161.90;;;;;;;14.50;29.54;94957.44;5039696;28;20359;-67
2022/01/25 08:20:36;;;;;;;193.32;158.50;;;;;;;14.51;29.54;94956.28;5041919;28;20529;-68
2022/01/25 08:23:01;;;;;;;198.85;161.20;;;;;;;14.50;29.48;94966.28;5042551;28;20071;-68
2022/01/25 08:25:27;;;;;;;195.35;157.20;;;;;;;14.52;29.63;94967.81;5041181;28;20485;-68
2022/01/25 08:27:53;;;;;;;196.18;159.10;;;;;;;14.50;29.68;94963.59;5041051;28;20397;-68
2022/01/25 08:30:18;;;;;;;195.15;158.43;;;;;;;14.49;29.53;94972.84;5046285;28;20071;-67
2022/01/25 08:32:44;;;;;;;187.88;152.40;;;;;;;14.52;29.64;94967.81;5041859;28;20580;-68
2022/01/25 08:35:10;;;;;;;191.65;155.27;;;;;;;14.52;29.61;94965.13;5049134;28;20052;-68
2022/01/25 08:37:36;;;;;;;196.40;159.70;;;;;;;14.52;29.74;94968.56;5047888;28;20124;-67
2022/01/25 08:40:07;;;;;;;192.35;156.02;;;;;;;14.52;29.57;94971.25;5048329;28;20050;-68
2022/01/25 08:42:34;;;;;;;192.75;155.73;;;;;;;14.50;29.79;94958.22;5045709;28;20045;-67
2022/01/25 08:45:01;;;;;;;203.10;164.90;;;;;;;14.52;29.79;94962.44;5044489;28;20359;-68
2022/01/25 08:47:26;;;;;;;197.10;159.90;;;;;;;14.52;29.80;94968.56;5043097;28;20190;-68
2022/01/25 08:49:52;;;;;;;195.48;157.52;;;;;;;14.53;29.81;94966.63;5042805;28;20044;-68
2022/01/25 08:52:17;;;;;;;192.73;156.27;;;;;;;14.48;29.66;94963.25;5044732;28;20041;-67
2022/01/25 08:54:43;;;;;;;192.27;156.48;;;;;;;14.46;29.60;94960.19;5054986;28;20056;-68
2022/01/25 08:57:09;;;;;;;191.88;156.60;;;;;;;14.40;29.85;94955.66;5049267;28;20049;-68
2022/01/25 08:59:35;;;;;;;189.60;154.20;;;;;;;14.37;29.84;94953.78;5049382;28;21249;-68
2022/01/25 09:02:01;;;;;;;192.98;156.43;;;;;;;14.37;29.92;94953.78;5043569;28;20099;-67
2022/01/25 09:04:27;;;;;;;219.70;176.82;;;;;;;14.32;29.80;94957.69;5044807;28;20052;-67
2022/01/25 09:06:52;;;;;;;197.93;159.82;;;;;;;14.30;29.84;94961.97;5046513;28;20106;-68
2022/01/25 09:09:18;;;;;;;193.38;156.25;;;;;;;14.29;29.84;94963.13;5046062;28;20116;-67
2022/01/25 09:11:44;;;;;;;196.35;157.68;;;;;;;14.27;29.96;94960.84;5042958;28;20056;-68
2022/01/25 09:14:10;;;;;;;192.80;154.98;;;;;;;14.26;30.00;94963.94;5042209;28;20040;-68
2022/01/25 09:16:36;;;;;;;194.43;156.07;;;;;;;14.28;29.91;94964.31;5044017;28;20052;-68
2022/01/25 09:19:03;;;;;;;201.50;162.93;;;;;;;14.33;29.95;94956.50;5042351;28;20053;-68
2022/01/25 09:21:28;;;;;;;188.35;153.07;;;;;;;14.39;29.80;94954.13;5045405;28;21199;-68
2022/01/25 09:23:54;;;;;;;196.40;157.00;;;;;;;14.36;30.16;94953.00;5044927;28;20114;-67
2022/01/25 09:26:21;;;;;;;195.50;158.05;;;;;;;14.35;29.87;94954.16;5044320;28;20041;-68
2022/01/25 09:28:49;;;;;;;187.23;152.07;;;;;;;14.38;30.13;94953.38;5046677;28;20418;-68
2022/01/25 09:31:16;;;;;;;194.27;156.48;;;;;;;14.41;30.11;94963.34;5048185;28;20077;-67
2022/01/25 09:33:42;;;;;;;205.30;165.55;;;;;;;14.43;30.00;94958.31;5041984;28;20117;-68
2022/01/25 09:36:07;;;;;;;193.63;155.75;;;;;;;14.44;30.04;94954.44;5045057;28;21310;-69
2022/01/25 09:38:33;;;;;;;192.98;154.68;;;;;;;14.46;30.19;94956.75;5045445;28;20489;-68
2022/01/25 09:40:58;;;;;;;195.00;159.07;;;;;;;14.45;30.18;94949.84;5046603;28;20049;-68
2022/01/25 09:43:25;;;;;;;193.15;156.50;;;;;;;14.47;30.16;94952.88;5045439;28;20044;-67
2022/01/25 09:45:51;;;;;;;191.25;155.25;;;;;;;14.47;30.13;94955.56;5043560;28;21223;-68
2022/01/25 09:48:17;;;;;;;194.55;157.88;;;;;;;14.47;30.05;94956.34;5042118;28;21192;-68
2022/01/25 09:50:43;;;;;;;194.27;156.18;;;;;;;14.48;30.29;94968.63;5045060;28;20037;-67
2022/01/25 09:53:09;;;;;;;191.13;155.25;;;;;;;14.50;30.29;94970.91;5042818;28;20268;-68
2022/01/25 09:55:39;;;;;;;191.18;153.63;;;;;;;14.49;30.29;94967.44;5047211;28;20045;-67
2022/01/25 09:58:04;;;;;;;195.25;158.70;;;;;;;14.47;30.32;94963.66;5044936;28;20056;-67
2022/01/25 10:00:32;;;;;;;191.85;155.23;;;;;;;14.50;30.36;94970.91;5045499;28;20049;-67
2022/01/25 10:03:18;;;;;;;188.20;151.73;;;;;;;14.49;30.33;94966.69;5042869;28;20056;-67
2022/01/25 10:05:46;;;;;;;186.98;150.73;;;;;;;14.50;30.46;94973.59;5045696;28;20347;-67
2022/01/25 10:08:21;;;;;;;193.25;155.55;;;;;;;14.52;30.44;94973.19;5044960;28;20063;-67
2022/01/25 10:11:03;;;;;;;194.00;156.00;;;;;;;14.53;30.37;94963.94;5043883;28;20041;-68
2022/01/25 10:13:40;;;;;;;193.73;155.55;;;;;;;14.52;30.54;94959.72;5046510;28;20096;-68
2022/01/25 10:16:11;;;;;;;199.50;160.43;;;;;;;14.53;30.50;94967.41;5039235;28;20428;-67
2022/01/25 10:18:56;;;;;;;196.63;159.85;;;;;;;14.54;30.57;94962.78;5047878;28;20100;-67
2022/01/25 10:21:37;;;;;;;196.27;159.15;;;;;;;14.55;30.71;94964.31;5043006;28;20080;-67
2022/01/25 10:24:17;;;;;;;194.80;157.80;;;;;;;14.55;30.59;94967.00;5045814;28;20448;-67
2022/01/25 10:26:46;;;;;;;190.63;153.18;;;;;;;14.55;30.66;94958.91;5047597;28;20173;-68
2022/01/25 10:29:15;;;;;;;192.45;154.25;;;;;;;14.56;30.51;94960.44;5045254;28;20052;-68
2022/01/25 10:31:47;;;;;;;192.48;153.90;;;;;;;14.57;30.60;94953.88;5042173;28;20048;-68
2022/01/25 10:34:16;;;;;;;192.50;154.48;;;;;;;14.57;30.66;94956.59;5043023;28;20366;-67
2022/01/25 10:36:47;;;;;;;190.30;154.13;;;;;;;14.57;30.85;94949.28;5048245;28;20056;-67
2022/01/25 10:39:18;;;;;;;191.55;155.73;;;;;;;14.55;30.63;94943.53;5042732;28;20044;-68
2022/01/25 10:41:44;;;;;;;193.02;155.73;;;;;;;14.57;30.73;94938.50;5041300;28;20041;-68
2022/01/25 10:44:10;;;;;;;199.05;161.98;;;;;;;14.58;30.79;94940.03;5044424;28;20066;-67
2022/01/25 10:46:35;;;;;;;193.45;157.48;;;;;;;14.58;30.76;94937.34;5038359;28;20119;-68
2022/01/25 10:49:05;;;;;;;191.90;155.98;;;;;;;14.58;30.92;94937.34;5041546;28;20067;-68
2022/01/25 10:51:38;;;;;;;190.80;154.75;;;;;;;14.58;30.99;94925.81;5049420;28;20123;-68
2022/01/25 10:54:11;;;;;;;194.43;157.38;;;;;;;14.56;31.02;94928.91;5039384;28;20137;-68
2022/01/25 10:56:38;;;;;;;197.77;158.35;;;;;;;14.56;30.94;94928.16;5040908;28;20048;-68
2022/01/25 10:59:06;;;;;;;188.00;153.30;;;;;;;14.57;31.03;94926.97;5044245;28;20136;-67
2022/01/25 11:01:45;;;;;;;192.45;155.40;;;;;;;14.57;31.04;94918.91;5043417;28;20396;-68
2022/01/25 11:04:14;;;;;;;193.33;157.70;;;;;;;14.56;31.00;94912.00;5045722;28;20044;-67
2022/01/25 11:06:40;;;;;;;195.32;160.45;;;;;;;14.56;31.00;94914.69;5038531;28;20779;-67
2022/01/25 11:09:10;;;;;;;191.40;153.75;;;;;;;14.58;31.05;94918.50;5043384;28;20411;-67
2022/01/25 11:11:45;;;;;;;197.80;160.10;;;;;;;14.57;31.05;94922.34;5041049;28;20189;-67
2022/01/25 11:16:56;;;;;;;193.07;155.85;;;;;;;14.59;31.03;94928.09;5040130;28;20121;-65
2022/01/25 11:19:22;;;;;;;192.88;155.60;;;;;;;14.59;31.26;94911.19;5045133;28;20063;-65
2022/01/25 11:21:50;;;;;;;195.38;158.00;;;;;;;14.58;31.15;94918.50;5044898;28;20448;-65
2022/01/25 11:24:17;;;;;;;200.00;162.35;;;;;;;14.58;31.26;94917.72;5041540;28;20055;-68
2022/01/25 11:26:44;;;;;;;191.77;155.02;;;;;;;14.56;31.34;94920.81;5044591;28;20054;-68
2022/01/25 11:29:10;;;;;;;199.93;163.38;;;;;;;14.57;31.23;94916.22;5041135;28;20130;-67
2022/01/25 11:31:39;;;;;;;193.05;156.00;;;;;;;14.58;31.39;94910.41;5044221;28;20489;-67
2022/01/25 11:34:08;;;;;;;190.93;154.30;;;;;;;14.60;31.03;94905.38;5042376;28;20249;-68
2022/01/25 11:36:53;;;;;;;190.97;152.90;;;;;;;14.60;31.30;94907.31;5043447;28;20496;-68
2022/01/25 11:39:24;;;;;;;193.63;154.93;;;;;;;14.61;31.23;94895.38;5043391;28;20045;-67
2022/01/25 11:41:51;;;;;;;199.35;162.25;;;;;;;14.62;31.24;94886.13;5040914;28;20158;-67
2022/01/25 11:44:21;;;;;;;197.38;160.85;;;;;;;14.61;31.28;94888.06;5052342;28;20105;-67
2022/01/25 11:46:54;;;;;;;;;;;;;;;14.62;31.30;94880.75;5042156;28;20495;-67
2022/01/25 11:49:21;;;;;;;201.65;159.10;;;;;;;14.61;31.24;94874.59;5044219;28;19924;-68
2022/01/25 11:52:12;;;;;;;188.48;150.45;;;;;;;14.61;31.32;94879.22;5042568;28;20045;-67
2022/01/25 11:54:38;;;;;;;197.50;157.02;;;;;;;14.60;31.35;94878.47;5040271;28;20750;-67
2022/01/25 11:57:26;;;;;;;197.05;158.75;;;;;;;14.60;31.33;94875.78;5044619;28;20124;-67
2022/01/25 11:59:56;;;;;;;188.00;152.20;;;;;;;14.61;31.37;94874.59;5039242;28;20266;-67
2022/01/25 12:02:41;;;;;;;;;;;;;;;14.62;31.33;94873.44;5048911;28;20093;-67
2022/01/25 12:05:09;;;;;;;188.93;147.35;;;;;;;14.61;31.34;94863.84;5045589;28;20465;-68
2022/01/25 12:07:40;;;;;;;195.85;157.25;;;;;;;14.62;31.48;94864.59;5049756;28;20493;-68
2022/01/25 12:10:38;;;;;;;193.10;155.98;;;;;;;14.61;31.37;94863.06;5046542;28;20048;-68
2022/01/25 12:13:28;;;;;;;192.38;154.15;;;;;;;14.62;31.40;94856.53;5045170;28;20055;-67
2022/01/25 12:16:27;;;;;;;200.70;160.18;;;;;;;14.61;31.55;94849.63;5045310;28;20458;-67
2022/01/25 12:18:54;;;;;;;;;;;;;;;14.62;31.38;94846.50;5045451;28;20045;-67
2022/01/25 12:21:49;;;;;;;191.63;150.32;;;;;;;14.62;31.51;94841.13;5044755;28;19935;-68
2022/01/25 12:24:30;;;;;;;203.27;161.88;;;;;;;14.63;31.38;94841.88;5045280;28;20072;-68
2022/01/25 12:27:07;;;;;;;192.98;155.07;;;;;;;14.62;31.41;94833.06;5047962;28;20090;-68
2022/01/25 12:29:39;;;;;;;189.70;151.68;;;;;;;14.63;31.51;94825.75;5048194;28;20061;-67
2022/01/25 12:32:29;;;;;;;189.05;152.60;;;;;;;14.62;31.51;94826.91;5045098;28;20053;-68
2022/01/25 12:35:13;;;;;;;200.43;161.02;;;;;;;14.63;31.91;94829.19;5041080;28;20121;-68
2022/01/25 12:37:55;;;;;;;196.32;157.55;;;;;;;14.63;31.54;94823.81;5044838;28;20061;-68
2022/01/25 12:40:29;;;;;;;191.00;153.18;;;;;;;14.64;31.70;94827.25;5048649;28;20049;-67
2022/01/25 12:43:03;;;;;;;198.45;159.90;;;;;;;14.65;31.67;94818.00;5046295;28;20414;-68
2022/01/25 12:45:33;;;;;;;190.48;154.50;;;;;;;14.65;31.68;94818.78;5045942;28;20441;-68
2022/01/25 12:48:02;;;;;;;187.25;152.02;;;;;;;14.65;31.60;94820.69;5050839;28;20071;-68
2022/01/25 12:50:29;;;;;;;189.85;154.18;;;;;;;14.65;31.43;94821.47;5048983;28;20045;-67
2022/01/25 12:52:58;;;;;;;188.82;153.70;;;;;;;14.65;31.57;94815.31;5046515;28;20412;-67
2022/01/25 12:55:27;;;;;;;195.43;158.43;;;;;;;14.65;31.66;94816.06;5042833;28;20052;-68
2022/01/25 12:57:54;;;;;;;190.50;154.50;;;;;;;14.64;31.69;94811.88;5045224;28;20174;-67
2022/01/25 13:00:22;;;;;;;197.63;160.00;;;;;;;14.64;31.80;94808.41;5043447;28;20082;-68
2022/01/25 13:02:47;;;;;;;198.77;160.52;;;;;;;14.65;31.69;94808.00;5042461;28;20124;-68
2022/01/25 13:05:21;;;;;;;193.93;158.07;;;;;;;14.66;31.55;94806.84;5041566;28;20059;-67